Time;durP1;ratioP1;P1;durP2;ratioP2;P2;SDS_P1;SDS_P2;PMS_P1;PMS_P2;Temp;Humidity;BMP_temperature;BMP_pressure;BME280_temperature;BME280_humidity;BME280_pressure;Samples;Min_cycle;Max_cycle;Signal;HPM_P1;HPM_P2
2021/12/29 00:00:21;;;;;;;4.73;3.40;;;9.30;99.90;;;;;;5039465;28;20444;-76
2021/12/29 00:02:47;;;;;;;6.17;4.27;;;9.30;99.90;;;;;;5037386;28;20703;-75
2021/12/29 00:05:13;;;;;;;4.77;3.83;;;9.30;99.90;;;;;;5038299;28;20427;-75
2021/12/29 00:07:39;;;;;;;6.07;4.20;;;9.30;99.90;;;;;;5037320;28;20417;-76
2021/12/29 00:10:05;;;;;;;10.27;4.27;;;9.30;99.90;;;;;;5016844;28;20209;-76
2021/12/29 00:12:35;;;;;;;6.97;4.13;;;9.30;99.90;;;;;;5037065;28;20495;-74
2021/12/29 00:15:01;;;;;;;5.70;4.60;;;9.30;99.90;;;;;;5038123;28;20428;-77
2021/12/29 00:17:27;;;;;;;6.80;4.90;;;9.30;99.90;;;;;;5036651;28;20406;-76
2021/12/29 00:19:52;;;;;;;6.07;4.20;;;9.30;99.90;;;;;;5034173;28;20969;-76
2021/12/29 00:22:18;;;;;;;6.80;4.43;;;9.30;99.90;;;;;;5035342;28;20198;-76
2021/12/29 00:24:45;;;;;;;8.10;4.73;;;9.30;99.90;;;;;;5017966;28;20618;-75
2021/12/29 00:27:11;;;;;;;5.40;4.30;;;9.30;99.90;;;;;;5035498;28;20540;-77
2021/12/29 00:29:37;;;;;;;8.27;4.53;;;9.30;99.90;;;;;;5034193;28;20444;-77
2021/12/29 00:32:27;;;;;;;8.17;5.07;;;9.30;99.90;;;;;;5036214;28;20488;-75
2021/12/29 00:35:14;;;;;;;9.87;5.07;;;9.30;99.90;;;;;;5023825;28;20405;-75
2021/12/29 00:37:59;;;;;;;6.63;4.60;;;9.30;99.90;;;;;;5035020;28;20459;-76
2021/12/29 00:40:51;;;;;;;6.03;4.93;;;9.30;99.90;;;;;;4996591;28;20533;-76
2021/12/29 00:43:37;;;;;;;9.67;5.50;;;9.30;99.90;;;;;;4997653;28;20439;-76
2021/12/29 00:46:21;;;;;;;7.17;5.07;;;9.20;99.90;;;;;;5016645;28;20460;-76
2021/12/29 00:48:48;;;;;;;6.20;3.83;;;9.20;99.90;;;;;;5015377;28;20787;-76
2021/12/29 00:51:14;;;;;;;5.27;4.00;;;9.20;99.90;;;;;;4998245;28;20226;-76
2021/12/29 00:53:39;;;;;;;8.40;4.17;;;9.20;99.90;;;;;;5015684;28;20410;-75
2021/12/29 00:56:06;;;;;;;6.67;4.40;;;9.20;99.90;;;;;;5033455;28;20512;-75
2021/12/29 00:58:32;;;;;;;8.37;4.70;;;9.20;99.90;;;;;;5034981;28;20187;-75
2021/12/29 01:00:59;;;;;;;6.60;4.80;;;9.20;99.90;;;;;;5034981;28;20763;-77
2021/12/29 01:03:26;;;;;;;11.00;5.83;;;9.20;99.90;;;;;;5034650;28;20456;-75
2021/12/29 01:05:52;;;;;;;10.37;4.23;;;9.20;99.90;;;;;;5033319;28;20413;-76
2021/12/29 01:08:18;;;;;;;8.73;5.43;;;9.20;99.90;;;;;;5035358;28;20425;-75
2021/12/29 01:10:44;;;;;;;9.07;4.30;;;9.20;99.90;;;;;;5035181;28;20420;-74
2021/12/29 01:13:14;;;;;;;6.00;4.97;;;9.20;99.90;;;;;;5033969;28;20182;-76
2021/12/29 01:18:27;;;;;;;7.70;4.60;;;9.20;99.90;;;;;;5033252;28;20764;-76
2021/12/29 01:20:54;;;;;;;5.93;3.87;;;9.20;99.90;;;;;;5034395;28;20397;-76
2021/12/29 01:23:21;;;;;;;7.80;4.83;;;9.20;99.90;;;;;;5033175;28;20413;-75
2021/12/29 01:25:46;;;;;;;6.20;4.30;;;9.20;99.90;;;;;;5032217;28;20972;-75
2021/12/29 01:28:12;;;;;;;6.27;4.37;;;9.30;99.90;;;;;;5033910;28;20408;-76
2021/12/29 01:30:38;;;;;;;7.63;4.13;;;9.20;99.90;;;;;;5034758;28;20170;-73
2021/12/29 01:33:06;;;;;;;7.63;5.10;;;9.20;99.90;;;;;;5034303;28;20228;-74
2021/12/29 01:35:33;;;;;;;7.40;4.87;;;9.30;99.90;;;;;;5032305;28;20182;-74
2021/12/29 01:38:00;;;;;;;9.23;5.37;;;9.30;99.90;;;;;;5032942;28;20417;-76
2021/12/29 01:40:26;;;;;;;7.03;4.20;;;9.30;99.90;;;;;;5034314;28;20807;-77
2021/12/29 01:42:52;;;;;;;6.77;4.63;;;9.30;99.90;;;;;;5033212;28;20566;-75
2021/12/29 01:45:17;;;;;;;7.20;4.13;;;9.30;99.90;;;;;;5034573;28;20436;-76
2021/12/29 01:47:43;;;;;;;7.83;4.23;;;9.30;99.90;;;;;;5035005;28;20946;-74
2021/12/29 01:50:11;;;;;;;5.17;4.20;;;9.30;99.90;;;;;;5035171;28;20204;-75
2021/12/29 01:52:39;;;;;;;7.10;4.97;;;9.30;99.90;;;;;;5034162;28;20452;-74
2021/12/29 01:55:07;;;;;;;6.07;4.23;;;9.30;99.90;;;;;;5025726;28;20409;-76
2021/12/29 01:57:33;;;;;;;4.37;3.43;;;9.30;99.90;;;;;;5033143;28;20502;-76
2021/12/29 02:00:11;;;;;;;5.17;3.60;;;9.30;99.90;;;;;;5048019;28;21224;-75
2021/12/29 02:02:38;;;;;;;6.17;3.80;;;9.20;99.90;;;;;;5033166;28;20401;-74
2021/12/29 02:05:04;;;;;;;7.20;3.93;;;9.20;99.90;;;;;;5033555;28;20448;-75
2021/12/29 02:07:30;;;;;;;4.33;3.37;;;9.30;99.90;;;;;;5032624;28;20840;-73
2021/12/29 02:09:56;;;;;;;5.97;4.13;;;9.20;99.90;;;;;;5033415;28;20441;-74
2021/12/29 02:12:22;;;;;;;9.93;4.57;;;9.20;99.90;;;;;;5033020;28;20512;-74
2021/12/29 02:14:48;;;;;;;3.80;3.50;;;9.30;99.90;;;;;;5032962;28;20162;-76
2021/12/29 02:17:14;;;;;;;7.83;4.47;;;9.20;99.90;;;;;;5032382;28;20436;-76
2021/12/29 02:19:45;;;;;;;6.57;4.17;;;9.20;99.90;;;;;;5032695;28;20205;-75
2021/12/29 02:22:25;;;;;;;5.40;4.10;;;9.20;99.90;;;;;;5032739;28;20202;-76
2021/12/29 02:25:05;;;;;;;6.20;4.57;;;9.20;99.90;;;;;;5032032;28;20424;-76
2021/12/29 02:27:32;;;;;;;5.43;4.37;;;9.20;99.90;;;;;;5032851;28;20491;-75
2021/12/29 02:29:58;;;;;;;5.17;4.40;;;9.20;99.90;;;;;;5032491;28;20437;-75
2021/12/29 02:32:24;;;;;;;6.40;4.40;;;9.20;99.90;;;;;;5032888;28;20448;-75
2021/12/29 02:34:50;;;;;;;5.37;4.40;;;9.30;99.90;;;;;;5031344;28;20956;-74
2021/12/29 02:37:19;;;;;;;7.00;4.70;;;9.30;99.90;;;;;;5034219;28;20561;-74
2021/12/29 02:39:46;;;;;;;7.00;4.60;;;9.30;99.90;;;;;;5043567;28;20183;-75
2021/12/29 02:42:14;;;;;;;5.33;4.47;;;9.30;99.90;;;;;;5032663;28;20474;-76
2021/12/29 02:44:41;;;;;;;5.20;4.50;;;9.30;99.90;;;;;;5030402;28;20503;-74
2021/12/29 02:47:08;;;;;;;6.70;4.97;;;9.30;99.90;;;;;;5014509;28;20424;-75
2021/12/29 02:49:34;;;;;;;8.37;5.20;;;9.30;99.90;;;;;;5033982;28;20451;-76
2021/12/29 02:52:00;;;;;;;7.53;5.40;;;9.30;99.90;;;;;;5032127;28;20452;-75
2021/12/29 02:54:25;;;;;;;8.83;5.07;;;9.30;99.90;;;;;;5031935;28;20771;-76
2021/12/29 02:56:54;;;;;;;5.20;4.43;;;9.30;99.90;;;;;;5032625;28;20166;-76
2021/12/29 02:59:21;;;;;;;6.30;4.87;;;9.30;99.90;;;;;;5032369;28;20235;-77
2021/12/29 03:01:47;;;;;;;7.13;5.10;;;9.20;99.90;;;;;;5031766;28;20425;-76
2021/12/29 03:04:13;;;;;;;8.17;6.63;;;9.20;99.90;;;;;;5035142;28;20397;-76
2021/12/29 03:06:40;;;;;;;5.83;5.23;;;9.30;99.90;;;;;;5036233;28;20405;-76
2021/12/29 03:09:07;;;;;;;7.10;4.90;;;9.30;99.90;;;;;;5036120;28;20922;-76
2021/12/29 03:11:34;;;;;;;10.80;5.63;;;9.30;99.90;;;;;;5039730;28;20440;-75
2021/12/29 03:13:59;;;;;;;6.47;5.00;;;9.30;99.90;;;;;;5036089;28;20483;-76
2021/12/29 03:16:26;;;;;;;6.30;5.27;;;9.30;99.90;;;;;;5036075;28;20463;-74
2021/12/29 03:18:51;;;;;;;11.67;5.77;;;9.30;99.90;;;;;;5035595;28;20197;-76
2021/12/29 03:21:17;;;;;;;5.77;4.73;;;9.20;99.90;;;;;;5035200;28;20397;-76
2021/12/29 03:23:43;;;;;;;9.30;5.70;;;9.20;99.90;;;;;;5034435;28;20178;-75
2021/12/29 03:26:09;;;;;;;7.30;5.00;;;9.20;99.90;;;;;;5035626;28;20509;-75
2021/12/29 03:28:37;;;;;;;6.13;5.40;;;9.20;99.90;;;;;;5035703;28;20202;-76
2021/12/29 03:31:03;;;;;;;8.30;5.50;;;9.20;99.90;;;;;;5034694;28;20167;-76
2021/12/29 03:33:29;;;;;;;11.13;6.27;;;9.20;99.90;;;;;;5034519;28;20663;-75
2021/12/29 03:36:02;;;;;;;7.27;5.93;;;9.20;99.90;;;;;;5035687;28;20512;-75
2021/12/29 03:38:29;;;;;;;5.83;5.20;;;9.20;99.90;;;;;;5034700;28;20158;-76
2021/12/29 03:40:57;;;;;;;9.90;5.37;;;9.20;99.90;;;;;;5034244;28;20420;-76
2021/12/29 03:43:23;;;;;;;7.23;5.10;;;9.20;99.90;;;;;;5033794;28;20432;-75
2021/12/29 03:45:51;;;;;;;6.23;4.67;;;9.20;99.90;;;;;;5034843;28;20418;-74
2021/12/29 03:48:18;;;;;;;7.03;5.47;;;9.20;99.90;;;;;;5036006;28;20409;-76
2021/12/29 03:50:46;;;;;;;7.13;5.23;;;9.20;99.90;;;;;;5033779;28;20421;-76
2021/12/29 03:53:14;;;;;;;6.10;4.80;;;9.20;99.90;;;;;;5033625;28;20452;-77
2021/12/29 03:55:41;;;;;;;7.37;4.87;;;9.20;99.90;;;;;;5033820;28;20417;-76
2021/12/29 03:58:07;;;;;;;9.17;5.00;;;9.20;99.90;;;;;;5035657;28;20416;-75
2021/12/29 04:00:33;;;;;;;6.83;4.83;;;9.20;99.90;;;;;;5033808;28;20777;-74
2021/12/29 04:02:59;;;;;;;5.43;3.90;;;9.20;99.90;;;;;;5034722;28;20853;-75
2021/12/29 04:05:25;;;;;;;6.30;4.90;;;9.20;99.90;;;;;;5035231;28;20603;-76
2021/12/29 04:07:53;;;;;;;5.80;4.90;;;9.20;99.90;;;;;;5035316;28;20213;-76
2021/12/29 04:10:20;;;;;;;11.10;5.70;;;9.20;99.90;;;;;;5035669;28;20956;-76
2021/12/29 04:12:47;;;;;;;9.07;5.70;;;9.20;99.90;;;;;;5034853;28;20477;-76
2021/12/29 04:15:14;;;;;;;7.20;5.97;;;9.20;99.90;;;;;;5033159;28;20938;-76
2021/12/29 04:17:40;;;;;;;10.73;5.60;;;9.20;99.90;;;;;;5035247;28;20401;-76
2021/12/29 04:23:07;;;;;;;8.00;5.47;;;9.20;99.90;;;;;;5042804;28;20425;-76
2021/12/29 04:25:34;;;;;;;7.60;4.60;;;9.10;99.90;;;;;;5035054;28;20416;-76
2021/12/29 04:28:02;;;;;;;6.17;4.30;;;9.10;99.90;;;;;;5036098;28;20417;-76
2021/12/29 04:30:27;;;;;;;8.73;5.70;;;9.10;99.90;;;;;;5036090;28;20460;-76
2021/12/29 04:32:53;;;;;;;8.57;5.33;;;9.10;99.90;;;;;;5034805;28;20460;-76
2021/12/29 04:35:23;;;;;;;6.70;4.67;;;9.00;99.90;;;;;;5033600;28;20427;-75
2021/12/29 04:37:50;;;;;;;8.33;5.73;;;9.10;99.90;;;;;;5050835;28;20229;-75
2021/12/29 04:40:16;;;;;;;9.40;5.37;;;9.00;99.90;;;;;;5016424;28;20542;-75
2021/12/29 04:42:42;;;;;;;11.43;5.83;;;9.00;99.90;;;;;;5035149;28;20500;-75
2021/12/29 04:45:08;;;;;;;10.40;5.07;;;9.10;99.90;;;;;;5033285;28;20465;-75
2021/12/29 04:47:39;;;;;;;8.10;4.90;;;9.10;99.90;;;;;;5035021;28;20417;-76
2021/12/29 04:50:13;;;;;;;9.47;6.20;;;9.10;99.90;;;;;;5034343;28;20461;-76
2021/12/29 04:52:39;;;;;;;9.80;5.70;;;9.10;99.90;;;;;;5033113;28;20790;-76
2021/12/29 04:55:07;;;;;;;8.57;5.80;;;9.10;99.90;;;;;;5033283;28;20779;-74
2021/12/29 04:57:33;;;;;;;6.57;4.93;;;9.10;99.90;;;;;;5050187;28;21029;-75
2021/12/29 04:59:59;;;;;;;7.70;5.60;;;9.10;99.90;;;;;;5034264;28;20448;-75
2021/12/29 05:02:24;;;;;;;6.50;5.10;;;9.10;99.90;;;;;;5033263;28;20413;-77
2021/12/29 05:04:59;;;;;;;8.57;5.80;;;9.10;99.90;;;;;;5034841;28;20215;-76
2021/12/29 05:10:16;;;;;;;10.20;6.10;;;9.00;99.90;;;;;;5009808;28;20817;-75
2021/12/29 05:12:42;;;;;;;8.40;5.40;;;8.90;99.90;;;;;;5035096;28;20448;-75
2021/12/29 05:15:08;;;;;;;9.20;6.10;;;8.90;99.90;;;;;;5034137;28;20221;-75
2021/12/29 05:17:33;;;;;;;11.30;6.43;;;8.90;99.90;;;;;;5034379;28;20209;-74
2021/12/29 05:19:59;;;;;;;9.17;6.17;;;8.90;99.90;;;;;;5033149;28;20445;-74
2021/12/29 05:22:25;;;;;;;10.20;5.93;;;8.90;99.90;;;;;;5032600;28;20222;-75
2021/12/29 05:24:50;;;;;;;10.80;6.70;;;8.90;99.90;;;;;;5034029;28;20663;-75
2021/12/29 05:27:17;;;;;;;9.60;5.93;;;8.90;99.90;;;;;;5033038;28;20253;-74
2021/12/29 05:29:42;;;;;;;8.73;5.23;;;8.90;99.90;;;;;;5034648;28;20225;-75
2021/12/29 05:32:08;;;;;;;8.33;5.90;;;8.90;99.90;;;;;;5033540;28;20475;-74
2021/12/29 05:34:34;;;;;;;8.90;5.83;;;9.00;99.90;;;;;;5017148;28;20637;-74
2021/12/29 05:37:00;;;;;;;10.00;6.10;;;9.00;99.90;;;;;;5034224;28;20174;-75
2021/12/29 05:39:26;;;;;;;9.30;6.60;;;9.00;99.90;;;;;;5032903;28;20523;-75
2021/12/29 05:41:51;;;;;;;9.70;5.50;;;9.00;99.90;;;;;;5032768;28;20413;-74
2021/12/29 05:44:17;;;;;;;11.67;6.83;;;9.00;99.90;;;;;;5034736;28;20189;-76
2021/12/29 05:46:43;;;;;;;10.50;6.13;;;8.90;99.90;;;;;;5035269;28;20164;-75
2021/12/29 05:49:10;;;;;;;9.67;7.30;;;8.90;99.90;;;;;;5033811;28;20950;-76
2021/12/29 05:51:36;;;;;;;11.30;8.30;;;8.90;99.90;;;;;;5032138;28;20194;-75
2021/12/29 05:54:02;;;;;;;13.30;6.67;;;8.80;99.90;;;;;;5033163;28;20425;-74
2021/12/29 05:56:28;;;;;;;12.00;8.30;;;8.80;99.90;;;;;;5031890;28;20409;-76
2021/12/29 05:58:56;;;;;;;12.53;8.10;;;8.80;99.90;;;;;;5033765;28;20433;-76
2021/12/29 06:01:22;;;;;;;10.07;7.50;;;8.80;99.90;;;;;;5032992;28;20171;-76
2021/12/29 06:03:48;;;;;;;10.70;7.87;;;8.80;99.90;;;;;;5031829;28;20423;-76
2021/12/29 06:06:13;;;;;;;13.40;7.90;;;8.80;99.90;;;;;;5030139;28;20425;-75
2021/12/29 06:08:39;;;;;;;14.00;8.10;;;8.80;99.90;;;;;;5031535;28;20198;-76
2021/12/29 06:11:05;;;;;;;10.70;7.30;;;8.80;99.90;;;;;;5030580;28;20159;-76
2021/12/29 06:13:30;;;;;;;10.10;7.63;;;8.80;99.90;;;;;;5031823;28;20670;-77
2021/12/29 06:15:56;;;;;;;11.63;7.90;;;8.80;99.90;;;;;;5030823;28;20579;-77
2021/12/29 06:18:22;;;;;;;13.80;8.30;;;8.80;99.90;;;;;;5032550;28;20643;-74
2021/12/29 06:20:47;;;;;;;15.17;9.50;;;8.90;99.90;;;;;;5033031;28;20174;-75
2021/12/29 06:23:13;;;;;;;16.90;10.37;;;8.90;99.90;;;;;;5033293;28;20637;-74
2021/12/29 06:25:40;;;;;;;14.57;9.10;;;8.90;99.90;;;;;;5033635;28;20230;-76
2021/12/29 06:28:06;;;;;;;16.83;9.00;;;8.90;99.90;;;;;;5034275;28;20451;-77
2021/12/29 06:30:32;;;;;;;15.57;9.30;;;8.90;99.90;;;;;;5034353;28;20433;-75
2021/12/29 06:32:58;;;;;;;13.80;9.20;;;8.90;99.90;;;;;;5038540;28;20521;-74
2021/12/29 06:35:24;;;;;;;19.03;9.10;;;8.90;99.90;;;;;;5033875;28;20424;-75
2021/12/29 06:37:50;;;;;;;12.10;9.30;;;8.90;99.90;;;;;;5032073;28;20274;-74
2021/12/29 06:40:15;;;;;;;12.70;8.27;;;8.90;99.90;;;;;;5032340;28;20537;-75
2021/12/29 06:42:42;;;;;;;17.03;9.60;;;8.90;99.90;;;;;;5031554;28;20555;-76
2021/12/29 06:45:08;;;;;;;12.80;9.00;;;8.90;99.90;;;;;;5031013;28;20628;-75
2021/12/29 06:47:34;;;;;;;14.10;9.40;;;8.90;99.90;;;;;;5031816;28;20421;-76
2021/12/29 06:50:00;;;;;;;13.60;9.13;;;8.90;99.90;;;;;;5047048;28;20460;-76
2021/12/29 06:52:25;;;;;;;16.60;10.17;;;8.90;99.90;;;;;;5030564;28;20457;-76
2021/12/29 06:54:51;;;;;;;17.43;10.30;;;8.90;99.90;;;;;;5031698;28;20405;-76
2021/12/29 06:57:17;;;;;;;15.37;10.03;;;8.90;99.90;;;;;;5032494;28;20162;-75
2021/12/29 06:59:43;;;;;;;15.10;10.03;;;8.90;99.90;;;;;;5031260;28;20552;-76
2021/12/29 07:02:10;;;;;;;16.73;8.40;;;8.90;99.90;;;;;;5032344;28;20324;-76
2021/12/29 07:04:37;;;;;;;16.47;10.63;;;8.90;99.90;;;;;;5030843;28;20178;-76
2021/12/29 07:07:03;;;;;;;15.50;8.93;;;8.90;99.90;;;;;;5014977;28;20436;-75
2021/12/29 07:09:28;;;;;;;13.30;9.77;;;8.90;99.90;;;;;;5030462;28;20539;-77
2021/12/29 07:11:54;;;;;;;12.60;8.83;;;8.90;99.90;;;;;;5032811;28;20563;-76
2021/12/29 07:14:21;;;;;;;13.17;9.23;;;8.90;99.90;;;;;;5032146;28;20188;-76
2021/12/29 07:16:48;;;;;;;13.67;9.83;;;8.90;99.90;;;;;;5032200;28;20401;-74
2021/12/29 07:19:15;;;;;;;17.73;9.80;;;8.90;99.90;;;;;;5031584;28;20459;-77
2021/12/29 07:21:41;;;;;;;14.13;8.90;;;8.90;99.90;;;;;;5032181;28;20412;-76
2021/12/29 07:24:08;;;;;;;15.63;10.17;;;8.90;99.90;;;;;;5032621;28;20421;-76
2021/12/29 07:26:34;;;;;;;14.90;8.67;;;8.90;99.90;;;;;;5032523;28;20543;-75
2021/12/29 07:29:00;;;;;;;15.37;8.23;;;8.90;99.90;;;;;;5032900;28;20421;-77
2021/12/29 07:31:27;;;;;;;13.67;8.57;;;8.90;99.90;;;;;;5031196;28;20471;-75
2021/12/29 07:33:53;;;;;;;16.53;7.50;;;8.90;99.90;;;;;;5030785;28;20435;-74
2021/12/29 07:36:19;;;;;;;11.30;6.90;;;8.90;99.90;;;;;;5030201;28;20424;-75
2021/12/29 07:38:45;;;;;;;8.20;7.13;;;8.90;99.90;;;;;;5032031;28;20178;-76
2021/12/29 07:41:12;;;;;;;10.10;7.37;;;8.90;99.90;;;;;;5031884;28;20163;-76
2021/12/29 07:43:38;;;;;;;14.83;5.97;;;8.90;99.90;;;;;;5030891;28;20416;-76
2021/12/29 07:46:05;;;;;;;6.90;5.23;;;8.90;99.90;;;;;;5032043;28;20417;-75
2021/12/29 07:48:31;;;;;;;10.07;5.87;;;9.00;99.90;;;;;;5033662;28;20548;-77
2021/12/29 07:50:59;;;;;;;10.03;5.50;;;9.00;99.90;;;;;;5036036;28;20445;-76
2021/12/29 07:53:25;;;;;;;8.50;5.10;;;9.00;99.90;;;;;;5033948;28;20487;-77
2021/12/29 07:55:51;;;;;;;10.00;5.57;;;9.00;99.90;;;;;;5034156;28;20817;-76
2021/12/29 07:58:17;;;;;;;9.20;5.03;;;9.10;99.90;;;;;;5034102;28;20424;-75
2021/12/29 08:00:44;;;;;;;7.50;4.63;;;9.10;99.90;;;;;;5035705;28;20509;-75
2021/12/29 08:03:13;;;;;;;8.33;4.70;;;9.10;99.90;;;;;;5033932;28;20644;-76
2021/12/29 08:05:40;;;;;;;8.67;5.00;;;9.10;99.90;;;;;;5037082;28;20482;-77
2021/12/29 08:08:07;;;;;;;8.57;5.40;;;9.20;99.90;;;;;;5035287;28;20420;-74
2021/12/29 08:10:34;;;;;;;9.70;5.60;;;9.20;99.90;;;;;;5035219;28;20841;-77
2021/12/29 08:13:00;;;;;;;7.20;5.10;;;9.20;99.90;;;;;;5033642;28;20456;-76
2021/12/29 08:15:26;;;;;;;6.80;4.83;;;9.20;99.90;;;;;;5033128;28;20421;-76
2021/12/29 08:17:52;;;;;;;6.30;4.57;;;9.20;99.90;;;;;;5033161;28;20700;-77
2021/12/29 08:20:18;;;;;;;7.50;4.30;;;9.20;99.90;;;;;;5033661;28;20202;-75
2021/12/29 08:22:43;;;;;;;7.73;4.57;;;9.20;99.90;;;;;;5034102;28;20253;-76
2021/12/29 08:25:09;;;;;;;6.20;4.00;;;9.30;99.90;;;;;;5031765;28;20469;-76
2021/12/29 08:27:35;;;;;;;11.50;5.30;;;9.30;99.90;;;;;;5035017;28;20712;-76
2021/12/29 08:30:01;;;;;;;8.00;5.20;;;9.30;99.90;;;;;;5034197;28;20266;-76
2021/12/29 08:32:27;;;;;;;8.13;5.00;;;9.30;99.90;;;;;;5035191;28;20201;-75
2021/12/29 08:34:53;;;;;;;8.53;5.17;;;9.30;99.90;;;;;;5033921;28;20361;-74
2021/12/29 08:37:19;;;;;;;8.70;4.20;;;9.40;99.90;;;;;;5034104;28;20179;-75
2021/12/29 08:39:45;;;;;;;7.70;4.47;;;9.40;99.90;;;;;;5035661;28;20696;-76
2021/12/29 08:42:12;;;;;;;10.20;5.43;;;9.40;99.90;;;;;;5034713;28;20163;-76
2021/12/29 08:44:38;;;;;;;6.80;4.50;;;9.40;99.90;;;;;;5034425;28;20185;-76
2021/12/29 08:47:04;;;;;;;9.33;4.70;;;9.40;99.90;;;;;;5034747;28;20443;-76
2021/12/29 08:49:30;;;;;;;7.80;4.27;;;9.40;99.80;;;;;;5034952;28;20853;-76
2021/12/29 08:51:57;;;;;;;5.70;4.13;;;9.40;99.80;;;;;;5033715;28;20453;-76
2021/12/29 08:54:23;;;;;;;7.27;4.70;;;9.40;99.90;;;;;;5034009;28;20190;-76
2021/12/29 08:56:50;;;;;;;7.67;3.47;;;9.40;99.30;;;;;;5037601;28;20972;-75
2021/12/29 08:59:16;;;;;;;6.20;4.20;;;9.40;99.10;;;;;;5031963;28;20528;-76
2021/12/29 09:01:42;;;;;;;7.90;5.63;;;9.40;99.00;;;;;;5036184;28;20495;-77
2021/12/29 09:04:07;;;;;;;5.90;3.50;;;9.40;98.50;;;;;;5035250;28;20644;-75
2021/12/29 09:06:34;;;;;;;8.10;3.80;;;9.40;98.50;;;;;;5035224;28;20185;-75
2021/12/29 09:09:00;;;;;;;11.60;4.93;;;9.40;98.90;;;;;;5033329;28;20260;-75
2021/12/29 09:11:25;;;;;;;6.83;4.30;;;9.40;98.60;;;;;;5034493;28;20457;-76
2021/12/29 09:13:53;;;;;;;9.17;4.97;;;9.40;98.70;;;;;;5034742;28;20791;-76
2021/12/29 09:16:19;;;;;;;10.00;4.23;;;9.50;98.70;;;;;;5032554;28;20193;-76
2021/12/29 09:18:45;;;;;;;12.10;4.20;;;9.50;98.70;;;;;;5035466;28;20445;-75
2021/12/29 09:21:14;;;;;;;12.50;4.37;;;9.50;99.10;;;;;;5033455;28;20170;-75
2021/12/29 09:23:40;;;;;;;6.23;4.30;;;9.50;98.70;;;;;;5035611;28;20171;-76
2021/12/29 09:26:07;;;;;;;8.47;3.80;;;9.60;98.60;;;;;;5033760;28;20525;-76
2021/12/29 09:28:33;;;;;;;8.10;4.50;;;9.60;98.60;;;;;;5035616;28;20452;-76
2021/12/29 09:30:59;;;;;;;9.37;5.40;;;9.60;98.50;;;;;;5037490;28;20443;-75
2021/12/29 09:33:24;;;;;;;8.47;4.73;;;9.70;98.40;;;;;;5035456;28;20206;-76
2021/12/29 09:35:57;;;;;;;8.90;6.37;;;9.70;98.20;;;;;;5015390;28;20429;-75
2021/12/29 09:38:22;;;;;;;10.00;6.57;;;9.80;98.50;;;;;;5031790;28;20715;-72
2021/12/29 09:40:48;;;;;;;6.67;4.07;;;9.90;98.40;;;;;;5031895;28;20449;-72
2021/12/29 09:43:15;;;;;;;6.33;4.50;;;10.00;97.50;;;;;;5023348;28;20201;-74
2021/12/29 09:45:42;;;;;;;7.60;4.57;;;10.10;97.30;;;;;;5020549;28;20501;-78
2021/12/29 09:48:08;;;;;;;10.50;5.30;;;10.10;97.00;;;;;;5034452;28;20470;-75
2021/12/29 09:50:35;;;;;;;6.07;4.13;;;10.20;96.90;;;;;;5033261;28;20441;-74
2021/12/29 09:53:01;;;;;;;6.23;4.63;;;10.30;96.70;;;;;;5032783;28;20194;-75
2021/12/29 09:55:27;;;;;;;4.80;3.83;;;10.40;96.10;;;;;;5031316;28;20429;-72
2021/12/29 09:57:57;;;;;;;6.63;3.70;;;10.40;95.40;;;;;;5034311;28;20789;-75
2021/12/29 10:00:31;;;;;;;8.33;5.03;;;10.40;95.40;;;;;;5033795;28;20454;-73
2021/12/29 10:02:59;;;;;;;8.43;4.90;;;10.40;95.30;;;;;;5033291;28;20413;-73
2021/12/29 10:05:27;;;;;;;6.47;4.37;;;10.50;95.50;;;;;;5031510;28;20432;-73
2021/12/29 10:08:28;;;;;;;8.60;4.23;;;10.50;95.40;;;;;;5030712;28;20906;-74
2021/12/29 10:11:00;;;;;;;8.20;4.70;;;10.60;94.90;;;;;;4991108;28;20508;-72
2021/12/29 10:13:29;;;;;;;6.80;3.97;;;10.70;94.80;;;;;;5033701;28;20453;-74
2021/12/29 10:16:20;;;;;;;10.47;5.57;;;10.80;94.30;;;;;;5048695;28;20432;-73
2021/12/29 10:18:53;;;;;;;6.93;3.70;;;10.80;94.30;;;;;;5030875;28;20832;-73
2021/12/29 10:21:22;;;;;;;8.97;4.70;;;10.80;94.30;;;;;;5015537;28;20421;-74
2021/12/29 10:23:51;;;;;;;7.27;5.23;;;10.90;94.20;;;;;;5049994;28;20405;-73
2021/12/29 10:26:21;;;;;;;12.90;5.80;;;10.90;93.90;;;;;;5033434;28;20412;-74
2021/12/29 10:28:50;;;;;;;8.73;5.20;;;10.90;94.30;;;;;;5033502;28;20436;-73
2021/12/29 10:31:19;;;;;;;11.50;6.43;;;10.90;94.30;;;;;;5033463;28;20424;-73
2021/12/29 10:33:53;;;;;;;8.13;5.33;;;11.00;94.30;;;;;;5032673;28;20460;-74
2021/12/29 10:36:21;;;;;;;9.07;6.20;;;10.90;94.10;;;;;;5032914;28;20443;-74
2021/12/29 10:39:17;;;;;;;11.00;5.70;;;10.90;94.30;;;;;;5033218;28;20449;-74
2021/12/29 10:41:50;;;;;;;10.73;5.23;;;11.00;94.00;;;;;;5039426;28;20428;-74
2021/12/29 10:44:27;;;;;;;10.27;5.93;;;10.90;94.10;;;;;;5031389;28;20433;-73
2021/12/29 10:46:56;;;;;;;9.63;5.20;;;11.00;94.30;;;;;;5034314;28;20420;-73
2021/12/29 10:49:24;;;;;;;6.73;5.03;;;11.10;94.00;;;;;;5032214;28;20494;-71
2021/12/29 10:51:49;;;;;;;13.73;5.37;;;11.20;93.80;;;;;;5023309;28;21030;-72
2021/12/29 10:54:19;;;;;;;8.00;5.57;;;11.20;93.80;;;;;;5035297;28;20504;-75
2021/12/29 10:57:12;;;;;;;7.77;4.93;;;11.30;93.40;;;;;;5033436;28;20162;-70
2021/12/29 10:59:41;;;;;;;8.40;5.57;;;11.20;93.60;;;;;;5026543;28;20460;-72
2021/12/29 11:02:09;;;;;;;10.73;6.67;;;11.30;93.80;;;;;;5031694;28;20823;-73
2021/12/29 11:04:36;;;;;;;9.50;4.83;;;11.30;93.50;;;;;;5034895;28;20421;-73
2021/12/29 11:07:02;;;;;;;9.27;5.50;;;11.30;93.40;;;;;;5035276;28;20527;-71
2021/12/29 11:09:32;;;;;;;8.90;4.73;;;11.30;93.50;;;;;;5023045;28;20444;-73
2021/12/29 11:11:59;;;;;;;8.70;5.20;;;11.30;93.40;;;;;;5030274;28;20556;-71
2021/12/29 11:14:31;;;;;;;9.23;4.67;;;11.30;93.30;;;;;;5033033;28;20483;-72
2021/12/29 11:17:09;;;;;;;9.57;5.83;;;11.40;93.20;;;;;;5031351;28;20547;-74
2021/12/29 11:19:37;;;;;;;6.23;4.50;;;11.40;92.40;;;;;;5032818;28;20460;-73
2021/12/29 11:22:14;;;;;;;9.00;4.60;;;11.50;93.10;;;;;;5033015;28;20413;-72
2021/12/29 11:24:42;;;;;;;9.40;3.87;;;11.60;93.00;;;;;;5037706;28;20499;-72
2021/12/29 11:27:14;;;;;;;7.97;4.13;;;11.60;91.70;;;;;;5037441;28;20401;-70
2021/12/29 11:30:10;;;;;;;7.20;4.20;;;11.60;91.80;;;;;;5036965;28;20448;-73
2021/12/29 11:32:39;;;;;;;8.13;5.20;;;11.70;91.80;;;;;;5020084;28;20471;-72
2021/12/29 11:35:12;;;;;;;9.77;5.30;;;11.70;91.80;;;;;;5036306;28;20425;-71
2021/12/29 11:37:47;;;;;;;8.50;5.43;;;11.70;91.40;;;;;;5035786;28;20424;-72
2021/12/29 11:40:18;;;;;;;8.73;4.93;;;11.70;91.00;;;;;;5035054;28;20440;-75
2021/12/29 11:42:44;;;;;;;7.30;4.70;;;11.70;91.10;;;;;;5035493;28;20431;-74
2021/12/29 11:45:11;;;;;;;5.67;4.10;;;11.70;91.30;;;;;;5036008;28;20265;-74
2021/12/29 11:47:38;;;;;;;10.00;4.90;;;11.70;90.90;;;;;;5036557;28;20202;-76
2021/12/29 11:50:05;;;;;;;8.17;5.70;;;11.70;91.00;;;;;;5035386;28;20524;-72
2021/12/29 11:52:58;;;;;;;6.20;4.90;;;11.70;90.90;;;;;;5035098;28;20456;-74
2021/12/29 11:55:36;;;;;;;13.70;10.33;;;11.80;90.90;;;;;;5037884;28;20432;-73
2021/12/29 11:58:12;;;;;;;8.90;4.90;;;11.90;90.80;;;;;;5038357;28;20503;-73
2021/12/29 12:00:38;;;;;;;7.80;4.57;;;11.90;90.50;;;;;;5034358;28;20483;-75
2021/12/29 12:03:08;;;;;;;14.10;8.30;;;12.00;90.40;;;;;;5036417;28;20429;-73
2021/12/29 12:05:37;;;;;;;8.77;5.13;;;12.00;90.10;;;;;;5035463;28;20481;-74
2021/12/29 12:08:16;;;;;;;8.27;5.07;;;12.00;90.10;;;;;;5033124;28;20871;-72
2021/12/29 12:10:43;;;;;;;9.10;4.53;;;12.00;90.30;;;;;;5030368;28;20773;-74
2021/12/29 12:13:27;;;;;;;7.60;4.87;;;12.00;89.70;;;;;;5030198;28;20456;-73
2021/12/29 12:16:13;;;;;;;6.80;4.63;;;11.90;89.50;;;;;;5031115;28;20409;-75
2021/12/29 12:18:55;;;;;;;18.03;11.13;;;11.90;87.60;;;;;;5028587;28;20985;-74
2021/12/29 12:21:33;;;;;;;6.80;3.47;;;11.80;88.90;;;;;;5037752;28;20432;-76
2021/12/29 12:24:23;;;;;;;9.17;3.67;;;11.80;87.70;;;;;;5035797;28;20424;-74
2021/12/29 12:26:58;;;;;;;5.33;2.90;;;11.80;87.70;;;;;;5035058;28;20841;-74
2021/12/29 12:29:30;;;;;;;5.03;2.40;;;11.80;88.50;;;;;;5035112;28;20976;-75
2021/12/29 12:32:15;;;;;;;9.03;4.53;;;11.80;87.00;;;;;;5034567;28;20503;-75
2021/12/29 12:34:59;;;;;;;7.60;2.83;;;11.70;87.30;;;;;;5031193;28;20603;-73
2021/12/29 12:37:37;;;;;;;5.57;3.57;;;11.60;86.50;;;;;;5032969;28;20491;-73
2021/12/29 12:40:10;;;;;;;4.47;2.73;;;11.60;86.90;;;;;;5029936;28;20853;-73
2021/12/29 12:42:37;;;;;;;5.67;2.13;;;11.50;86.90;;;;;;5032731;28;20429;-74
2021/12/29 12:45:15;;;;;;;6.73;2.73;;;11.60;86.30;;;;;;5033821;28;20513;-74
2021/12/29 12:47:41;;;;;;;5.20;2.20;;;11.50;86.20;;;;;;5015233;28;20445;-73
2021/12/29 12:50:07;;;;;;;3.73;2.50;;;11.50;86.30;;;;;;5034924;28;20441;-73
2021/12/29 12:52:44;;;;;;;6.33;2.10;;;11.50;86.10;;;;;;5049468;28;20220;-73
2021/12/29 12:55:11;;;;;;;3.40;1.70;;;11.50;84.00;;;;;;5049028;28;20428;-74
2021/12/29 12:57:41;;;;;;;6.80;2.53;;;11.40;84.70;;;;;;5015183;28;20413;-74
2021/12/29 13:00:22;;;;;;;5.00;2.57;;;11.30;85.90;;;;;;5033090;28;20511;-74
2021/12/29 13:03:00;;;;;;;3.07;1.90;;;11.30;85.70;;;;;;5033786;28;21206;-73
2021/12/29 13:05:35;;;;;;;2.40;1.70;;;11.30;87.90;;;;;;5033962;28;21551;-74